Time;durP1;ratioP1;P1;durP2;ratioP2;P2;SDS_P1;SDS_P2;PMS_P1;PMS_P2;Temp;Humidity;BMP_temperature;BMP_pressure;BME280_temperature;BME280_humidity;BME280_pressure;Samples;Min_cycle;Max_cycle;Signal;HPM_P1;HPM_P2
2023/11/18 00:02:14;;;;;;;;;11.00;11.00;;;;;9.41;100.00;98724.00;6160606;28;96324;-65
2023/11/18 00:05:20;;;;;;;;;11.00;10.00;;;;;9.32;100.00;98716.41;6147422;28;96763;-64
2023/11/18 00:08:23;;;;;;;;;11.60;11.00;;;;;9.20;100.00;98715.44;6159255;28;97288;-63
2023/11/18 00:11:27;;;;;;;;;10.00;10.00;;;;;9.27;100.00;98714.38;6159291;28;96756;-61
2023/11/18 00:14:30;;;;;;;;;7.20;7.20;;;;;9.32;100.00;98721.78;6161553;28;96397;-62
2023/11/18 00:17:33;;;;;;;;;8.50;7.75;;;;;9.26;100.00;98722.66;6159184;28;96687;-62
2023/11/18 00:20:38;;;;;;;;;9.00;9.00;;;;;9.11;100.00;98718.38;6142795;28;96974;-61
2023/11/18 00:23:41;;;;;;;;;9.80;9.80;;;;;9.17;100.00;98740.91;6159908;28;96316;-65
2023/11/18 00:26:44;;;;;;;;;10.20;10.00;;;;;9.18;100.00;98739.88;6156381;28;96789;-62
2023/11/18 00:29:47;;;;;;;;;14.00;12.00;;;;;9.15;100.00;98740.28;6156272;28;96425;-61
2023/11/18 00:32:50;;;;;;;;;11.00;11.00;;;;;9.17;100.00;98740.09;6142113;28;96317;-61
2023/11/18 00:35:55;;;;;;;;;13.00;12.00;;;;;9.14;100.00;98742.16;6142263;28;96390;-63
2023/11/18 00:38:58;;;;;;;;;13.00;12.40;;;;;9.07;100.00;98736.00;6160762;28;96247;-62
2023/11/18 00:42:02;;;;;;;;;11.00;10.75;;;;;9.12;100.00;98741.56;6161090;28;96342;-62
2023/11/18 00:45:07;;;;;;;;;11.50;11.50;;;;;9.05;100.00;98746.13;6160553;28;96358;-63
2023/11/18 00:48:10;;;;;;;;;11.00;11.00;;;;;9.01;100.00;98750.31;6126970;28;96975;-62
2023/11/18 00:51:15;;;;;;;;;11.00;11.00;;;;;9.13;100.00;98751.28;6155816;28;96494;-62
2023/11/18 00:54:18;;;;;;;;;11.80;10.00;;;;;9.03;100.00;98740.16;6155760;28;96412;-63
2023/11/18 00:57:21;;;;;;;;;11.20;11.20;;;;;9.10;100.00;98749.00;6155704;28;96959;-63
2023/11/18 01:00:26;;;;;;;;;11.00;10.20;;;;;9.26;100.00;98744.16;6157104;28;96305;-62
2023/11/18 01:03:30;;;;;;;;;11.50;10.50;;;;;9.15;100.00;98753.75;6139619;28;96897;-62
2023/11/18 01:06:34;;;;;;;;;14.00;13.00;;;;;9.23;100.00;98750.81;6138535;28;96703;-63
2023/11/18 01:09:38;;;;;;;;;12.80;12.40;;;;;9.24;100.00;98752.44;6147679;28;96959;-63
2023/11/18 01:12:44;;;;;;;;;13.60;12.40;;;;;9.21;100.00;98750.19;6166116;28;97086;-64
2023/11/18 01:15:49;;;;;;;;;14.75;13.00;;;;;9.34;100.00;98750.09;6163609;28;96919;-63
2023/11/18 01:18:52;;;;;;;;;13.00;12.40;;;;;9.30;100.00;98756.97;6166022;28;96327;-63
2023/11/18 01:21:56;;;;;;;;;14.00;12.60;;;;;9.41;100.00;98761.66;6163257;28;96782;-63
2023/11/18 01:25:00;;;;;;;;;12.00;12.00;;;;;9.34;100.00;98752.78;6165490;28;96940;-62
2023/11/18 01:28:03;;;;;;;;;11.00;10.00;;;;;9.32;100.00;98760.28;6163236;28;96469;-63
2023/11/18 01:31:09;;;;;;;;;14.67;13.67;;;;;9.41;100.00;98760.84;6166207;28;96726;-63
2023/11/18 01:34:12;;;;;;;;;10.60;9.60;;;;;9.29;100.00;98759.84;6164464;28;96284;-62
2023/11/18 01:37:17;;;;;;;;;13.00;13.00;;;;;9.33;100.00;98753.03;6148184;28;96289;-63
2023/11/18 01:40:20;;;;;;;;;11.40;11.00;;;;;9.26;100.00;98757.63;6151129;28;96513;-64
2023/11/18 01:43:23;;;;;;;;;14.00;14.00;;;;;9.29;100.00;98757.16;6132725;28;96847;-63
2023/11/18 01:46:29;;;;;;;;;14.00;13.00;;;;;9.23;100.00;98752.69;6148528;28;96990;-63
2023/11/18 01:49:39;;;;;;;;;14.00;13.00;;;;;9.27;100.00;98756.56;6165891;28;98129;-63
2023/11/18 01:52:45;;;;;;;;;15.00;14.00;;;;;9.25;100.00;98747.88;6157269;28;96484;-64
2023/11/18 01:55:49;;;;;;;;;16.20;15.00;;;;;9.30;100.00;98750.75;6146804;28;99046;-64
2023/11/18 01:58:53;;;;;;;;;17.25;17.00;;;;;9.36;100.00;98733.75;6132537;28;96601;-62
2023/11/18 02:01:59;;;;;;;;;13.50;13.50;;;;;9.45;100.00;98746.72;6164843;28;96260;-63
2023/11/18 02:05:02;;;;;;;;;14.75;14.75;;;;;9.34;100.00;98725.88;6184715;22;97910;-65
2023/11/18 02:08:08;;;;;;;;;13.00;13.00;;;;;9.52;100.00;98749.38;6159277;28;98341;-65
2023/11/18 02:11:18;;;;;;;;;13.20;13.00;;;;;9.60;100.00;98746.41;6161596;28;96518;-65
2023/11/18 02:14:27;;;;;;;;;13.00;12.00;;;;;9.56;100.00;98743.34;6159767;28;96456;-65
2023/11/18 02:17:30;;;;;;;;;14.50;14.00;;;;;9.52;100.00;98741.31;6160918;28;96508;-64
2023/11/18 02:20:35;;;;;;;;;17.00;16.00;;;;;9.61;100.00;98747.25;6162154;28;97318;-65
2023/11/18 02:23:40;;;;;;;;;18.00;14.25;;;;;9.60;100.00;98750.97;6162664;28;96495;-65
2023/11/18 02:26:45;;;;;;;;;15.00;14.00;;;;;9.45;100.00;98730.56;6162723;28;96342;-65
2023/11/18 02:29:51;;;;;;;;;16.00;15.80;;;;;9.54;100.00;98748.09;6162598;28;96381;-65
2023/11/18 02:33:02;;;;;;;;;18.00;15.20;;;;;9.61;100.00;98744.53;6184133;28;98546;-65
2023/11/18 02:36:12;;;;;;;;;17.00;16.00;;;;;9.62;100.00;98751.59;6160756;28;98772;-65
2023/11/18 02:39:22;;;;;;;;;14.20;13.00;;;;;9.64;100.00;98762.94;6161755;28;96730;-65
2023/11/18 02:42:28;;;;;;;;;14.00;14.00;;;;;9.67;100.00;98754.44;6175200;28;96324;-65
2023/11/18 02:45:32;;;;;;;;;17.00;16.00;;;;;9.49;100.00;98734.47;6185989;28;98483;-65
2023/11/18 02:48:35;;;;;;;;;16.00;15.00;;;;;9.67;100.00;98746.38;6187891;28;97529;-65
2023/11/18 02:51:39;;;;;;;;;18.40;17.00;;;;;9.59;100.00;98744.75;6186103;28;96678;-65
2023/11/18 02:54:42;;;;;;;;;17.00;16.20;;;;;9.74;100.00;98755.19;6180111;28;96507;-66
2023/11/18 02:57:46;;;;;;;;;18.25;17.75;;;;;9.75;100.00;98743.38;6195137;28;98383;-65
2023/11/18 03:00:50;;;;;;;;;16.00;15.50;;;;;9.86;100.00;98758.84;6163259;28;96275;-65
2023/11/18 03:03:53;;;;;;;;;17.80;16.20;;;;;9.85;100.00;98766.09;6161515;28;96452;-65
2023/11/18 03:06:56;;;;;;;;;15.25;15.00;;;;;9.83;100.00;98764.66;6145064;28;98785;-65
2023/11/18 03:09:59;;;;;;;;;17.80;16.20;;;;;9.81;100.00;98764.88;6162602;28;96238;-65
2023/11/18 03:13:04;;;;;;;;;16.50;16.50;;;;;9.85;100.00;98770.66;6161878;28;96926;-65
2023/11/18 03:16:11;;;;;;;;;15.80;14.80;;;;;9.84;100.00;98767.13;6145450;28;96359;-62
2023/11/18 03:19:14;;;;;;;;;17.00;15.50;;;;;9.77;100.00;98771.75;6163251;28;96513;-62
2023/11/18 03:22:17;;;;;;;;;17.75;16.75;;;;;9.79;100.00;98780.41;6150304;28;96637;-62
2023/11/18 03:25:21;;;;;;;;;17.00;15.80;;;;;9.84;100.00;98785.16;6161635;28;96377;-63
2023/11/18 03:28:26;;;;;;;;;15.40;15.00;;;;;9.82;100.00;98779.97;6143988;28;96470;-62
2023/11/18 03:31:29;;;;;;;;;18.80;15.80;;;;;9.81;100.00;98785.59;6158483;28;96713;-63
2023/11/18 03:34:32;;;;;;;;;18.00;17.00;;;;;9.72;100.00;98781.53;6177510;28;97524;-63
2023/11/18 03:37:38;;;;;;;;;18.00;16.50;;;;;9.69;100.00;98766.63;6157062;28;96612;-62
2023/11/18 03:40:42;;;;;;;;;18.40;17.40;;;;;9.82;100.00;98781.88;6185411;28;97507;-63
2023/11/18 03:43:47;;;;;;;;;16.75;15.75;;;;;9.83;100.00;98786.19;6170627;28;96310;-63
2023/11/18 03:46:52;;;;;;;;;16.60;15.60;;;;;9.90;100.00;98789.66;6191539;28;96680;-63
2023/11/18 03:49:55;;;;;;;;;18.00;17.00;;;;;9.91;100.00;98783.25;6169198;28;96266;-62
2023/11/18 03:52:58;;;;;;;;;16.00;15.00;;;;;9.90;100.00;98784.28;6131711;28;98508;-62
2023/11/18 03:56:02;;;;;;;;;16.40;16.00;;;;;9.96;100.00;98794.19;6137412;28;98543;-62
2023/11/18 03:59:07;;;;;;;;;18.00;16.00;;;;;9.99;100.00;98799.94;6166782;28;96120;-62
2023/11/18 04:02:10;;;;;;;;;17.50;16.75;;;;;10.01;100.00;98797.03;6152456;28;96741;-62
2023/11/18 04:05:14;;;;;;;;;17.00;16.00;;;;;10.08;100.00;98807.72;6171595;28;96204;-62
2023/11/18 04:08:17;;;;;;;;;16.00;15.00;;;;;10.17;100.00;98806.44;6157284;28;98435;-62
2023/11/18 04:11:20;;;;;;;;;13.50;13.50;;;;;10.06;100.00;98794.50;6171511;28;96675;-63
2023/11/18 04:14:26;;;;;;;;;15.40;14.80;;;;;10.13;100.00;98806.03;6176846;28;96535;-63
2023/11/18 04:17:29;;;;;;;;;13.40;13.40;;;;;10.16;100.00;98800.25;6164082;28;96383;-62
2023/11/18 04:20:32;;;;;;;;;17.00;16.00;;;;;10.20;100.00;98806.84;6163475;28;97073;-62
2023/11/18 04:23:37;;;;;;;;;15.80;14.20;;;;;10.13;100.00;98799.81;6146748;28;98634;-62
2023/11/18 04:26:40;;;;;;;;;16.40;15.40;;;;;10.17;100.00;98809.13;6169045;28;96970;-62
2023/11/18 04:29:45;;;;;;;;;14.20;13.40;;;;;10.18;100.00;98811.63;6150922;28;98941;-63
2023/11/18 04:32:48;;;;;;;;;13.60;13.60;;;;;10.16;100.00;98813.72;6164030;28;97178;-62
2023/11/18 04:35:51;;;;;;;;;15.00;14.00;;;;;10.15;100.00;98812.03;6163052;28;96404;-63
2023/11/18 04:38:55;;;;;;;;;15.00;13.60;;;;;10.21;100.00;98815.75;6187663;28;96464;-62
2023/11/18 04:41:58;;;;;;;;;15.00;14.00;;;;;10.25;100.00;98811.56;6153793;28;97464;-62
2023/11/18 04:45:02;;;;;;;;;9.40;9.40;;;;;10.31;100.00;98816.06;6165735;28;96300;-62
2023/11/18 04:48:06;;;;;;;;;14.40;13.00;;;;;10.27;100.00;98814.84;6147121;28;96675;-62
2023/11/18 04:51:09;;;;;;;;;14.00;13.40;;;;;10.24;100.00;98809.91;6137558;28;99349;-62
2023/11/18 04:54:13;;;;;;;;;13.00;12.00;;;;;10.18;100.00;98816.19;6175879;28;96718;-62
2023/11/18 04:57:16;;;;;;;;;14.00;13.00;;;;;10.14;100.00;98814.94;6168807;28;98887;-62
2023/11/18 05:00:21;;;;;;;;;12.60;12.60;;;;;10.16;100.00;98815.59;6163814;28;97225;-62
2023/11/18 05:03:25;;;;;;;;;15.00;15.00;;;;;10.19;100.00;98815.97;6170202;28;96765;-62
2023/11/18 05:06:28;;;;;;;;;12.00;12.00;;;;;10.11;100.00;98815.41;6156829;28;96328;-63
2023/11/18 05:09:31;;;;;;;;;11.50;11.50;;;;;10.05;100.00;98817.09;6146182;28;96726;-62
2023/11/18 05:12:35;;;;;;;;;11.00;11.00;;;;;10.01;100.00;98818.59;6162626;28;97058;-63
2023/11/18 05:15:39;;;;;;;;;12.00;11.80;;;;;9.94;100.00;98818.63;6167812;28;96376;-62
2023/11/18 05:18:42;;;;;;;;;13.40;11.40;;;;;10.00;100.00;98823.13;6147811;28;96664;-63
2023/11/18 05:21:49;;;;;;;;;13.00;12.75;;;;;10.00;100.00;98820.44;6177385;28;96493;-62
2023/11/18 05:24:52;;;;;;;;;13.50;13.00;;;;;10.10;100.00;98825.34;6179677;28;96261;-63
2023/11/18 05:27:55;;;;;;;;;13.00;11.00;;;;;10.08;100.00;98832.81;6164540;28;97903;-63
2023/11/18 05:31:01;;;;;;;;;12.60;12.60;;;;;10.00;100.00;98831.22;6146972;28;96926;-62
2023/11/18 05:34:05;;;;;;;;;10.60;10.60;;;;;10.04;100.00;98834.28;6146240;28;99013;-62
2023/11/18 05:37:08;;;;;;;;;8.00;8.00;;;;;9.95;100.00;98828.34;6164014;28;96257;-61
2023/11/18 05:40:15;;;;;;;;;10.20;9.20;;;;;10.10;100.00;98830.72;6164587;28;96334;-62
2023/11/18 05:43:21;;;;;;;;;7.00;7.00;;;;;9.98;100.00;98824.38;6154177;28;96282;-61
2023/11/18 05:46:29;;;;;;;;;8.00;7.00;;;;;10.03;100.00;98838.03;6136452;28;96750;-62
2023/11/18 05:49:33;;;;;;;;;8.60;7.60;;;;;10.01;100.00;98837.44;6145147;28;96470;-61
2023/11/18 05:52:36;;;;;;;;;8.50;8.50;;;;;9.95;100.00;98849.06;6129894;28;99788;-60
2023/11/18 05:55:39;;;;;;;;;9.00;9.00;;;;;9.88;100.00;98845.59;6147070;28;97636;-62
2023/11/18 05:58:43;;;;;;;;;12.00;12.00;;;;;9.87;100.00;98855.53;6137280;28;96603;-62
2023/11/18 06:01:50;;;;;;;;;11.25;11.25;;;;;9.87;100.00;98846.66;6130239;28;99534;-62
2023/11/18 06:04:54;;;;;;;;;9.80;9.80;;;;;9.84;100.00;98849.78;6177604;28;96825;-62
2023/11/18 06:07:58;;;;;;;;;10.00;10.00;;;;;9.96;100.00;98854.25;6164866;28;96707;-61
2023/11/18 06:11:12;;;;;;;;;10.00;9.00;;;;;9.94;100.00;98855.50;6191898;28;96484;-61
2023/11/18 06:14:16;;;;;;;;;10.00;10.00;;;;;9.98;100.00;98854.00;6173906;28;96762;-61
2023/11/18 06:17:22;;;;;;;;;11.80;10.40;;;;;9.90;100.00;98855.13;6185563;28;99077;-62
2023/11/18 06:20:26;;;;;;;;;14.00;13.00;;;;;9.93;100.00;98860.06;6172648;28;96827;-62
2023/11/18 06:23:32;;;;;;;;;12.00;11.00;;;;;10.01;100.00;98861.69;6145072;28;97408;-62
2023/11/18 06:26:36;;;;;;;;;13.25;13.00;;;;;10.09;100.00;98866.78;6142517;28;96506;-61
2023/11/18 06:29:40;;;;;;;;;10.00;10.00;;;;;10.10;100.00;98873.81;6163683;28;96274;-61
2023/11/18 06:32:44;;;;;;;;;9.00;9.00;;;;;10.02;100.00;98856.03;6147037;28;98430;-62
2023/11/18 06:35:48;;;;;;;;;11.00;11.00;;;;;10.19;100.00;98880.63;6163305;28;96786;-62
2023/11/18 06:38:52;;;;;;;;;15.00;14.00;;;;;10.18;100.00;98881.66;6163296;28;96570;-62
2023/11/18 06:41:55;;;;;;;;;10.00;9.20;;;;;10.19;100.00;98887.88;6146203;28;96628;-63
2023/11/18 06:44:59;;;;;;;;;10.00;10.00;;;;;10.17;100.00;98885.38;6138239;28;98926;-63
2023/11/18 06:48:05;;;;;;;;;11.50;11.50;;;;;10.28;100.00;98895.47;6157789;28;96329;-67
2023/11/18 06:51:09;;;;;;;;;10.60;10.00;;;;;10.26;100.00;98886.75;6162820;28;96292;-67
2023/11/18 06:54:13;;;;;;;;;10.40;9.00;;;;;10.26;100.00;98894.84;6163460;28;97705;-67
2023/11/18 06:57:16;;;;;;;;;10.00;9.00;;;;;10.19;100.00;98893.25;6145026;28;96751;-67
2023/11/18 07:00:21;;;;;;;;;10.00;9.00;;;;;10.17;100.00;98896.16;6178594;28;96848;-66
2023/11/18 07:03:26;;;;;;;;;8.80;8.00;;;;;10.21;100.00;98900.09;6177471;28;96962;-66
2023/11/18 07:06:31;;;;;;;;;8.25;8.25;;;;;10.25;100.00;98909.38;6143964;28;96894;-66
2023/11/18 07:09:35;;;;;;;;;8.00;8.00;;;;;10.16;100.00;98918.78;6153035;28;98847;-66
2023/11/18 07:12:39;;;;;;;;;7.00;7.00;;;;;10.01;100.00;98923.63;6162767;28;96820;-66
2023/11/18 07:15:42;;;;;;;;;9.00;8.00;;;;;9.94;100.00;98929.03;6145377;28;97858;-66
2023/11/18 07:18:47;;;;;;;;;5.25;5.25;;;;;10.04;100.00;98928.56;6140599;28;98456;-67
2023/11/18 07:21:51;;;;;;;;;8.00;7.00;;;;;9.97;100.00;98925.06;6165408;28;96238;-67
2023/11/18 07:24:54;;;;;;;;;9.80;8.80;;;;;9.94;100.00;98923.66;6130295;28;98419;-65
2023/11/18 07:27:57;;;;;;;;;6.00;6.00;;;;;10.11;100.00;98915.88;6167513;28;96410;-67
2023/11/18 07:31:04;;;;;;;;;8.00;7.00;;;;;10.40;100.00;98919.84;6163384;28;96364;-66
2023/11/18 07:34:09;;;;;;;;;5.00;5.00;;;;;10.66;100.00;98921.47;6163224;28;96463;-67
2023/11/18 07:37:12;;;;;;;;;6.75;6.00;;;;;10.91;100.00;98926.84;6164739;28;96644;-67
2023/11/18 07:40:22;;;;;;;;;5.80;5.40;;;;;12.24;100.00;98917.69;6151466;28;96750;-67
2023/11/18 07:43:26;;;;;;;;;8.60;8.00;;;;;12.57;100.00;98919.84;6158952;28;96707;-67
2023/11/18 07:46:30;;;;;;;;;8.00;8.00;;;;;12.80;100.00;98921.78;6137062;28;96663;-66
2023/11/18 07:49:36;;;;;;;;;5.80;4.20;;;;;12.90;100.00;98919.31;6160649;28;96989;-65
2023/11/18 07:52:40;;;;;;;;;5.00;5.00;;;;;14.34;100.00;98926.28;6163365;28;96673;-66
2023/11/18 07:55:44;;;;;;;;;4.75;4.75;;;;;16.02;100.00;98936.63;6162381;28;96155;-64
2023/11/18 07:58:47;;;;;;;;;4.75;4.00;;;;;16.10;100.00;98935.34;6145439;28;98436;-65
2023/11/18 08:01:50;;;;;;;;;4.00;3.00;;;;;15.57;100.00;98933.38;6167403;28;97527;-64
2023/11/18 08:04:56;;;;;;;;;5.00;4.80;;;;;14.93;100.00;98934.88;6160761;28;96441;-65
2023/11/18 08:07:59;;;;;;;;;3.75;3.00;;;;;14.37;100.00;98950.25;6170953;28;96749;-64
2023/11/18 08:11:04;;;;;;;;;5.00;5.00;;;;;13.87;100.00;98947.41;6138421;28;96770;-63
2023/11/18 08:14:07;;;;;;;;;6.20;6.00;;;;;13.28;100.00;98945.91;6142841;28;97421;-64
2023/11/18 08:17:13;;;;;;;;;7.60;7.00;;;;;12.76;100.00;98947.63;6165436;28;96540;-64
2023/11/18 08:20:17;;;;;;;;;8.40;8.00;;;;;12.55;100.00;98940.91;6166776;28;96872;-64
2023/11/18 08:23:21;;;;;;;;;7.40;6.20;;;;;12.29;100.00;98919.69;6131627;28;97414;-64
2023/11/18 08:26:24;;;;;;;;;5.00;5.00;;;;;13.88;100.00;98944.44;6128639;28;98485;-64
2023/11/18 08:29:31;;;;;;;;;7.60;7.60;;;;;16.78;100.00;98958.31;6130003;28;98418;-65
2023/11/18 08:32:34;;;;;;;;;4.60;4.60;;;;;17.31;100.00;98955.41;6163854;28;96467;-64
2023/11/18 08:35:40;;;;;;;;;5.80;4.80;;;;;16.48;98.58;98956.94;6146434;28;96314;-65
2023/11/18 08:38:44;;;;;;;;;5.20;5.20;;;;;15.44;100.00;98967.09;6164611;28;96662;-64
2023/11/18 08:41:50;;;;;;;;;7.60;7.00;;;;;14.47;100.00;98963.97;6164072;28;96591;-64
2023/11/18 08:44:55;;;;;;;;;6.25;6.00;;;;;13.78;100.00;98967.81;6164827;28;96406;-64
2023/11/18 08:47:59;;;;;;;;;9.60;9.00;;;;;13.10;100.00;98963.03;6164298;28;97091;-64
2023/11/18 08:51:07;;;;;;;;;7.00;6.00;;;;;12.56;100.00;98966.88;6164012;28;96322;-64
2023/11/18 08:54:22;;;;;;;;;9.00;8.40;;;;;12.26;100.00;98976.94;6165416;28;96474;-64
2023/11/18 08:57:25;;;;;;;;;11.20;9.20;;;;;11.90;100.00;98981.38;6166451;28;96311;-64
2023/11/18 09:03:53;;;;;;;;;11.20;9.60;;;;;11.53;100.00;98996.75;6140242;28;96711;-63
2023/11/18 09:07:00;;;;;;;;;12.00;11.50;;;;;11.23;100.00;98988.56;6131341;28;96684;-63
2023/11/18 09:10:03;;;;;;;;;13.00;10.60;;;;;11.00;100.00;98991.06;6146727;28;97298;-64
2023/11/18 09:13:06;;;;;;;;;11.40;10.40;;;;;10.88;100.00;99000.13;6171255;28;96622;-63
2023/11/18 09:16:10;;;;;;;;;13.40;12.00;;;;;10.75;100.00;99006.47;6146831;28;98462;-63
2023/11/18 09:19:14;;;;;;;;;9.00;9.00;;;;;10.48;100.00;99000.41;6164959;28;96267;-63
2023/11/18 09:22:20;;;;;;;;;9.60;9.60;;;;;10.45;100.00;99008.97;6169194;28;96581;-67
2023/11/18 09:25:23;;;;;;;;;8.80;7.40;;;;;10.46;100.00;99001.69;6165214;28;96718;-67
2023/11/18 09:28:28;;;;;;;;;10.00;10.00;;;;;10.36;100.00;99000.28;6177896;28;96455;-66
2023/11/18 09:31:33;;;;;;;;;10.00;8.00;;;;;10.39;100.00;99004.44;6174927;28;96851;-63
2023/11/18 09:34:39;;;;;;;;;8.00;7.40;;;;;10.36;100.00;99012.97;6176030;28;97195;-64
2023/11/18 09:37:43;;;;;;;;;12.00;10.80;;;;;10.37;100.00;99017.28;6172170;28;96560;-64
2023/11/18 09:40:50;;;;;;;;;10.40;10.00;;;;;10.30;100.00;99011.97;6173381;28;96383;-64
2023/11/18 09:43:56;;;;;;;;;11.00;11.00;;;;;10.41;100.00;99011.25;6173662;28;96330;-64
2023/11/18 09:47:09;;;;;;;;;12.00;12.00;;;;;10.51;100.00;99028.78;6171876;28;96366;-63
2023/11/18 09:50:17;;;;;;;;;12.00;11.00;;;;;10.34;100.00;99037.41;6155606;28;96701;-63
2023/11/18 09:53:25;;;;;;;;;11.00;10.25;;;;;10.20;100.00;99043.94;6175690;28;96349;-64
2023/11/18 09:56:38;;;;;;;;;8.67;8.00;;;;;10.03;100.00;99050.81;6182268;28;96453;-63
2023/11/18 09:59:54;;;;;;;;;10.20;10.00;;;;;9.75;100.00;99048.44;6174870;28;96380;-63
2023/11/18 10:03:00;;;;;;;;;12.00;11.00;;;;;9.57;100.00;99049.13;6157467;28;96768;-63
2023/11/18 10:06:05;;;;;;;;;8.00;8.00;;;;;9.46;100.00;99046.25;6156151;28;96653;-64
2023/11/18 10:09:16;;;;;;;;;11.40;10.40;;;;;9.53;100.00;99055.94;6174407;28;96325;-64
2023/11/18 10:12:23;;;;;;;;;11.25;11.25;;;;;9.42;100.00;99047.72;6148806;28;96379;-63
2023/11/18 10:15:31;;;;;;;;;15.40;15.00;;;;;9.47;100.00;99064.06;6168692;28;96366;-62
2023/11/18 10:18:36;;;;;;;;;13.60;13.60;;;;;9.29;100.00;99047.72;6168218;28;96492;-63
2023/11/18 10:21:40;;;;;;;;;13.40;13.00;;;;;9.30;100.00;99073.59;6165183;28;96205;-62
2023/11/18 10:24:46;;;;;;;;;14.00;13.60;;;;;9.12;100.00;99071.53;6151757;28;97352;-63
2023/11/18 10:27:49;;;;;;;;;18.00;17.00;;;;;9.16;100.00;99075.47;6188155;28;96334;-62
2023/11/18 10:30:52;;;;;;;;;17.80;16.80;;;;;9.27;100.00;99080.22;6153749;28;99715;-63
2023/11/18 10:33:56;;;;;;;;;19.00;16.20;;;;;9.34;100.00;99081.03;6148560;28;96415;-63
2023/11/18 10:37:03;;;;;;;;;17.33;16.00;;;;;9.40;100.00;99076.69;6171047;28;96301;-63
2023/11/18 10:40:12;;;;;;;;;16.60;15.60;;;;;9.52;100.00;99086.63;6156025;28;98396;-63
2023/11/18 10:43:16;;;;;;;;;17.80;16.40;;;;;9.63;100.00;99095.09;6187958;28;96331;-62
2023/11/18 10:46:20;;;;;;;;;16.20;16.00;;;;;9.65;100.00;99096.50;6147967;28;96669;-63
2023/11/18 10:49:24;;;;;;;;;13.00;12.60;;;;;9.62;100.00;99099.63;6165285;28;96397;-62
2023/11/18 10:52:31;;;;;;;;;16.00;14.00;;;;;9.61;100.00;99110.59;6165077;28;96256;-63
2023/11/18 10:55:40;;;;;;;;;15.00;15.00;;;;;9.36;100.00;99108.56;6160196;28;96273;-62
2023/11/18 10:58:44;;;;;;;;;13.00;12.40;;;;;9.42;100.00;99113.13;6165399;28;96270;-63
2023/11/18 11:01:48;;;;;;;;;13.00;13.00;;;;;9.42;100.00;99115.81;6147241;28;96507;-62
2023/11/18 11:04:53;;;;;;;;;14.25;14.00;;;;;9.49;100.00;99118.47;6154555;28;96872;-62
2023/11/18 11:07:57;;;;;;;;;15.40;14.40;;;;;9.49;100.00;99122.00;6145644;28;96706;-63
2023/11/18 11:11:07;;;;;;;;;11.40;11.40;;;;;9.42;100.00;99125.75;6178110;28;96340;-63
2023/11/18 11:14:15;;;;;;;;;15.80;13.80;;;;;9.42;100.00;99137.34;6161493;28;98499;-62
2023/11/18 11:17:27;;;;;;;;;13.00;12.00;;;;;9.47;100.00;99136.72;6145111;28;96278;-63
2023/11/18 11:20:36;;;;;;;;;15.20;14.20;;;;;9.53;100.00;99147.44;6164319;28;96452;-62
2023/11/18 11:23:53;;;;;;;;;16.00;16.00;;;;;9.50;100.00;99145.19;6167826;28;98326;-63
2023/11/18 11:27:15;;;;;;;;;15.60;14.60;;;;;9.54;100.00;99151.81;6171311;28;96785;-63
2023/11/18 11:30:25;;;;;;;;;17.20;16.00;;;;;9.54;100.00;99157.19;6170274;28;99280;-62
2023/11/18 11:33:40;;;;;;;;;14.00;13.00;;;;;9.58;100.00;99146.81;6171796;28;96276;-62
2023/11/18 11:36:50;;;;;;;;;17.00;16.00;;;;;9.56;100.00;99157.00;6171451;28;96649;-63
2023/11/18 11:39:55;;;;;;;;;18.20;17.40;;;;;9.45;100.00;99161.13;6185780;28;96863;-63
2023/11/18 11:43:04;;;;;;;;;15.80;15.20;;;;;9.46;100.00;99161.97;6163492;28;96562;-62
2023/11/18 11:46:10;;;;;;;;;16.00;15.00;;;;;9.46;100.00;99168.19;6163607;28;96438;-63
2023/11/18 11:49:20;;;;;;;;;15.40;15.20;;;;;9.37;100.00;99176.66;6166230;28;96207;-63
2023/11/18 11:52:30;;;;;;;;;15.00;14.00;;;;;9.37;100.00;99180.19;6167335;28;96993;-62
2023/11/18 11:55:44;;;;;;;;;15.00;14.40;;;;;9.42;100.00;99182.25;6167745;28;96512;-63
2023/11/18 11:58:53;;;;;;;;;14.25;14.00;;;;;9.46;100.00;99192.41;6168881;28;96263;-63
2023/11/18 12:01:58;;;;;;;;;17.20;15.80;;;;;9.31;100.00;99191.78;6167538;28;96390;-62
2023/11/18 12:05:06;;;;;;;;;20.00;20.00;;;;;9.26;100.00;99196.94;6165262;28;96638;-62
2023/11/18 12:08:13;;;;;;;;;15.25;14.00;;;;;9.34;100.00;99206.66;6155880;28;96234;-62
2023/11/18 12:11:18;;;;;;;;;15.00;14.00;;;;;9.29;100.00;99203.75;6168359;28;96108;-62
2023/11/18 12:14:37;;;;;;;;;15.50;15.00;;;;;9.36;100.00;99205.44;6166165;28;97190;-63
2023/11/18 12:18:12;;;;;;;;;15.00;15.00;;;;;9.32;100.00;99214.13;6168410;28;96387;-63
2023/11/18 12:21:56;;;;;;;;;14.60;14.00;;;;;9.40;100.00;99206.66;6166422;28;96513;-62
2023/11/18 12:25:36;;;;;;;;;14.40;14.40;;;;;9.45;100.00;99219.50;6165068;28;96478;-63
2023/11/18 12:28:45;;;;;;;;;18.00;17.00;;;;;9.42;100.00;99230.69;6165481;28;98391;-63
2023/11/18 12:31:50;;;;;;;;;13.60;12.60;;;;;9.45;100.00;99232.97;6165104;28;96343;-62
2023/11/18 12:34:54;;;;;;;;;14.50;13.50;;;;;9.47;100.00;99225.53;6182172;28;97338;-63
2023/11/18 12:38:34;;;;;;;;;16.00;14.60;;;;;9.44;100.00;99210.59;6164336;28;96404;-64
2023/11/18 12:41:39;;;;;;;;;13.00;13.00;;;;;9.40;100.00;99230.91;6163571;28;98557;-64
2023/11/18 12:45:14;;;;;;;;;14.00;13.00;;;;;9.37;100.00;99235.88;6169221;28;97163;-63
2023/11/18 12:48:26;;;;;;;;;17.00;17.00;;;;;9.33;100.00;99245.38;6143680;28;96847;-64
2023/11/18 12:51:34;;;;;;;;;16.20;14.80;;;;;8.95;100.00;99234.31;6166710;28;97500;-63
2023/11/18 12:54:41;;;;;;;;;15.00;13.00;;;;;9.27;100.00;99249.72;6174541;28;97066;-64
2023/11/18 12:57:47;;;;;;;;;16.20;14.80;;;;;9.31;100.00;99248.28;6172667;28;97221;-63
2023/11/18 13:00:50;;;;;;;;;15.40;15.00;;;;;9.21;100.00;99247.84;6160895;28;98441;-63
2023/11/18 13:03:55;;;;;;;;;15.20;14.00;;;;;9.22;100.00;99256.75;6163290;28;96761;-64
2023/11/18 13:07:00;;;;;;;;;13.00;13.00;;;;;9.22;100.00;99262.97;6145154;28;96602;-62
2023/11/18 13:10:04;;;;;;;;;14.00;13.40;;;;;9.18;100.00;99263.56;6142571;28;96631;-63
2023/11/18 13:13:08;;;;;;;;;14.00;12.50;;;;;9.01;100.00;99260.41;6148079;28;97447;-63
2023/11/18 13:16:14;;;;;;;;;15.50;15.00;;;;;9.07;100.00;99276.56;6132818;28;96578;-66
2023/11/18 13:19:27;;;;;;;;;17.40;17.00;;;;;8.97;100.00;99280.66;6148343;28;96759;-64
2023/11/18 13:22:31;;;;;;;;;17.00;16.40;;;;;8.91;100.00;99276.09;6116011;28;97064;-62
2023/11/18 13:25:48;;;;;;;;;17.00;16.00;;;;;8.90;100.00;99277.94;6139517;28;96391;-63
2023/11/18 13:28:51;;;;;;;;;18.40;17.00;;;;;9.00;100.00;99286.47;6139717;28;96825;-63
2023/11/18 13:31:56;;;;;;;;;17.00;17.00;;;;;9.00;100.00;99296.41;6139681;28;96299;-63
2023/11/18 13:35:03;;;;;;;;;18.00;16.50;;;;;9.03;100.00;99287.94;6138382;28;97538;-63
2023/11/18 13:38:07;;;;;;;;;14.00;14.00;;;;;9.09;100.00;99296.00;6137761;28;96504;-63
2023/11/18 13:41:13;;;;;;;;;18.00;17.00;;;;;9.07;100.00;99305.31;6110705;28;98665;-63
2023/11/18 13:44:35;;;;;;;;;15.60;15.60;;;;;9.11;100.00;99317.34;6103487;28;97059;-63
2023/11/18 13:47:38;;;;;;;;;14.25;14.00;;;;;9.09;100.00;99316.69;6121271;28;96297;-67
2023/11/18 13:50:43;;;;;;;;;21.00;18.40;;;;;9.05;100.00;99315.44;6143542;28;96904;-66
2023/11/18 13:53:48;;;;;;;;;19.00;18.00;;;;;8.88;100.00;99301.53;6116532;28;99129;-66
2023/11/18 13:56:51;;;;;;;;;14.00;13.20;;;;;9.13;100.00;99324.19;6149223;28;96525;-66
2023/11/18 13:59:54;;;;;;;;;16.40;16.00;;;;;9.12;100.00;99327.06;6135044;28;98810;-66
2023/11/18 14:02:59;;;;;;;;;18.60;18.00;;;;;9.01;100.00;99336.53;6148799;28;96879;-66
2023/11/18 14:06:07;;;;;;;;;17.00;16.00;;;;;8.90;100.00;99342.47;6164772;28;97753;-66
2023/11/18 14:09:11;;;;;;;;;18.60;17.40;;;;;8.98;100.00;99358.47;6145595;28;99090;-66
2023/11/18 14:12:14;;;;;;;;;16.00;14.50;;;;;8.86;100.00;99349.28;6145241;28;99411;-65
2023/11/18 14:15:18;;;;;;;;;14.60;13.60;;;;;8.92;100.00;99353.03;6162856;28;96548;-65
2023/11/18 14:18:21;;;;;;;;;16.75;16.00;;;;;9.02;100.00;99350.81;6148111;28;96281;-66